Vaughan, North Carolina
Current Conditions -  °F | °C
As of 11:56 AM on Sunday 23 Nov 2014 (Local Time) from KAVC Reporting Station
Scattered Clouds Scattered Clouds  
Wind Chill: 50°   Ceiling: Unl
Heat Index: 50°   Visibility: 10mi
Dew Point: 42°   Wind: 3mph
Humidity: 73%   Direction: 150°SSE
Pressure: 30.22"   Gusts: NA
Location:  36.43°N, 78°W
Report Text: KAVC 231656Z AUTO 15003KT 10SM SCT120 10/05 A3022 RMK AO2 T00990053
Loading
Personal Weather Stations






























Interactive Weather Map New forecast layout! Learn more

10-Day Weather Forecast

Advertisements
Track Severe Weather on mobile